Terminal Aerodrome Forecast
Issued by NWS

Home | Current Version | Previous Version | Text Only | Print | Product List | Glossary Off
Versions: 1 2 3 4 5 6 7 8 9 10 11 12 13 14 15 16 17 18 19 20 21 22 23 24 25 26 27 28 29 30 31 32 33 34 35

000
FTUS43 KLOT 210900 AAA
TAFGYY
TAF AMD
KGYY 210900Z 2109/2206 36012KT P6SM VCSH SCT015 OVC025
      TEMPO 2109/2113 -SHRA BKN015
     FM211300 36014G20KT P6SM VCSH SCT012 OVC020
     FM211900 01012G18KT P6SM SCT020 BKN035
     FM220100 04006KT P6SM SCT040=

USA.gov is the U.S. government's official web portal to all federal, state and local government web resources and services.